createdAt,value
2017-11-11T00:01:11.353Z,9.10
2017-11-11T00:03:40.817Z,9.00
2017-11-11T00:06:11.718Z,9.00
2017-11-11T00:08:42.078Z,9.00
2017-11-11T00:11:11.680Z,9.10
2017-11-11T00:13:42.053Z,8.70
2017-11-11T00:16:11.537Z,8.70
2017-11-11T00:18:40.847Z,8.60
2017-11-11T00:21:11.266Z,8.70
2017-11-11T00:23:40.542Z,8.70
2017-11-11T00:26:09.849Z,8.80
2017-11-11T00:28:39.770Z,8.70
2017-11-11T00:31:10.714Z,8.80
2017-11-11T00:33:40.221Z,9.10
2017-11-11T00:36:09.689Z,8.70
2017-11-11T00:38:39.040Z,8.70
2017-11-11T00:41:09.061Z,9.10
2017-11-11T00:43:38.558Z,9.10
2017-11-11T00:46:08.008Z,9.00
2017-11-11T00:48:37.935Z,9.10
2017-11-11T00:51:08.148Z,9.10
2017-11-11T00:53:38.134Z,9.40
2017-11-11T00:56:07.274Z,9.00
2017-11-11T00:58:37.220Z,9.50
2017-11-11T01:01:06.928Z,9.40
2017-11-11T01:03:36.217Z,9.40
2017-11-11T01:06:05.628Z,9.50
2017-11-11T01:08:35.378Z,9.30
2017-11-11T01:11:05.616Z,9.40
2017-11-11T01:13:36.499Z,9.40
2017-11-11T01:16:05.665Z,9.20
2017-11-11T01:18:36.540Z,9.10
2017-11-11T01:21:06.571Z,9.30
2017-11-11T01:23:36.328Z,9.40
2017-11-11T01:26:06.399Z,9.40
2017-11-11T01:28:35.697Z,9.40
2017-11-11T01:31:04.842Z,9.50
2017-11-11T01:33:34.421Z,9.50
2017-11-11T01:36:04.019Z,9.50
2017-11-11T01:38:33.319Z,9.70
2017-11-11T01:41:02.993Z,9.40
2017-11-11T01:43:32.239Z,9.40
2017-11-11T01:46:01.749Z,9.40
2017-11-11T01:48:31.048Z,9.30
2017-11-11T01:51:00.194Z,9.30
2017-11-11T01:53:29.677Z,9.10
2017-11-11T01:55:59.166Z,9.10
2017-11-11T01:58:28.749Z,9.10
2017-11-11T02:00:58.022Z,9.00
2017-11-11T02:03:27.486Z,9.10
2017-11-11T02:05:56.931Z,8.90
2017-11-11T02:11:01.934Z,8.70
2017-11-11T02:13:34.505Z,8.80
2017-11-11T02:16:07.051Z,9.10
2017-11-11T02:26:26.428Z,8.60
2017-11-11T02:28:56.223Z,8.60
2017-11-11T02:31:25.875Z,8.70
2017-11-11T02:33:56.302Z,8.60
2017-11-11T02:36:25.729Z,8.70
2017-11-11T02:38:55.053Z,8.60
2017-11-11T02:41:24.850Z,8.80
2017-11-11T02:43:54.849Z,8.60
2017-11-11T02:46:24.461Z,8.70
2017-11-11T02:48:53.869Z,8.70
2017-11-11T02:51:23.075Z,8.50
2017-11-11T02:53:52.795Z,8.60
2017-11-11T02:56:22.230Z,8.70
2017-11-11T02:58:51.906Z,8.60
2017-11-11T03:01:21.601Z,8.70
2017-11-11T03:03:51.120Z,8.70
2017-11-11T03:06:20.571Z,8.60
2017-11-11T03:08:50.204Z,8.70
2017-11-11T03:11:19.909Z,8.80
2017-11-11T03:13:49.159Z,8.80
2017-11-11T03:16:18.632Z,8.60
2017-11-11T03:18:47.815Z,9.00
2017-11-11T03:21:17.177Z,8.70
2017-11-11T03:23:47.772Z,8.70
2017-11-11T03:26:16.863Z,8.70
2017-11-11T03:28:46.443Z,8.60
2017-11-11T03:31:15.800Z,8.70
2017-11-11T03:33:45.268Z,8.70
2017-11-11T03:36:16.065Z,8.60
2017-11-11T03:38:45.933Z,8.20
2017-11-11T03:41:15.259Z,8.30
2017-11-11T03:43:44.783Z,8.30
2017-11-11T03:46:14.277Z,8.40
2017-11-11T03:48:43.813Z,8.20
2017-11-11T03:51:13.853Z,8.20
2017-11-11T03:53:43.565Z,8.20
2017-11-11T03:56:14.669Z,8.70
2017-11-11T03:58:45.746Z,8.60
2017-11-11T04:01:15.446Z,8.80
2017-11-11T04:03:44.479Z,8.50
2017-11-11T04:06:14.262Z,8.70
2017-11-11T04:08:43.095Z,8.70
2017-11-11T04:11:12.625Z,8.50
2017-11-11T04:13:42.368Z,8.60
2017-11-11T04:16:11.114Z,8.30
2017-11-11T04:18:40.457Z,8.40
2017-11-11T04:21:10.810Z,8.60
2017-11-11T04:23:40.289Z,8.60
2017-11-11T04:26:10.497Z,8.70
2017-11-11T04:28:40.621Z,8.60
2017-11-11T04:31:10.512Z,8.50
2017-11-11T04:33:42.014Z,8.60
2017-11-11T04:36:11.401Z,8.70
2017-11-11T04:38:40.907Z,8.70
2017-11-11T04:41:10.342Z,8.70
2017-11-11T04:43:39.816Z,8.60
2017-11-11T04:46:09.876Z,8.80
2017-11-11T04:48:39.421Z,8.70
2017-11-11T04:51:08.948Z,8.70
2017-11-11T04:53:38.390Z,8.60
2017-11-11T04:56:08.474Z,8.60
2017-11-11T04:58:37.205Z,8.60
2017-11-11T05:01:06.755Z,8.60
2017-11-11T05:03:35.761Z,8.50
2017-11-11T05:06:05.676Z,8.80
2017-11-11T05:08:35.266Z,8.50
2017-11-11T05:11:04.573Z,8.60
2017-11-11T05:13:33.364Z,8.60
2017-11-11T05:16:03.144Z,8.40
2017-11-11T05:18:32.032Z,8.40
2017-11-11T05:21:01.260Z,8.30
2017-11-11T05:23:30.878Z,8.30
2017-11-11T05:26:00.087Z,8.40
2017-11-11T05:28:29.623Z,8.20
2017-11-11T05:30:59.767Z,8.10
2017-11-11T05:33:29.726Z,8.30
2017-11-11T05:35:58.992Z,8.40
2017-11-11T05:38:29.773Z,8.10
2017-11-11T05:41:00.167Z,8.10
2017-11-11T05:43:28.976Z,8.00
2017-11-11T05:45:59.183Z,8.00
2017-11-11T05:48:28.026Z,7.70
2017-11-11T05:50:57.274Z,7.80
2017-11-11T05:53:27.497Z,7.60
2017-11-11T05:55:57.380Z,7.70
2017-11-11T05:58:27.322Z,7.70
2017-11-11T06:00:57.928Z,7.40
2017-11-11T06:03:29.073Z,7.10
2017-11-11T06:06:00.849Z,7.20
2017-11-11T06:08:30.289Z,7.40
2017-11-11T06:10:59.542Z,7.30
2017-11-11T06:13:29.551Z,7.30
2017-11-11T06:15:58.949Z,6.80
2017-11-11T06:18:29.027Z,6.80
2017-11-11T06:20:58.891Z,7.00
2017-11-11T06:23:28.473Z,6.80
2017-11-11T06:25:58.960Z,6.70
2017-11-11T06:28:28.528Z,7.00
2017-11-11T06:30:58.799Z,7.00
2017-11-11T06:33:28.133Z,7.00
2017-11-11T06:35:57.601Z,7.30
2017-11-11T06:38:27.146Z,7.10
2017-11-11T06:40:57.352Z,7.50
2017-11-11T06:43:27.011Z,7.50
2017-11-11T06:45:56.598Z,7.50
2017-11-11T06:48:26.564Z,7.40
2017-11-11T06:50:56.345Z,7.60
2017-11-11T06:53:25.909Z,7.70
2017-11-11T06:55:55.339Z,7.90
2017-11-11T06:58:25.380Z,7.50
2017-11-11T07:00:54.892Z,7.40
2017-11-11T07:03:24.404Z,7.90
2017-11-11T07:05:54.202Z,7.70
2017-11-11T07:08:23.522Z,8.00
2017-11-11T07:10:52.603Z,7.80
2017-11-11T07:13:22.327Z,7.70
2017-11-11T07:15:51.762Z,7.50
2017-11-11T07:18:21.202Z,7.90
2017-11-11T07:20:50.638Z,7.70
2017-11-11T07:23:19.918Z,7.40
2017-11-11T07:25:49.208Z,7.90
2017-11-11T07:28:18.786Z,7.70
2017-11-11T07:30:48.109Z,8.00
2017-11-11T07:33:18.439Z,7.90
2017-11-11T07:35:48.518Z,7.80
2017-11-11T07:38:18.074Z,7.70
2017-11-11T07:40:47.718Z,7.80
2017-11-11T07:43:18.142Z,7.70
2017-11-11T07:45:47.644Z,7.70
2017-11-11T07:48:17.133Z,8.20
2017-11-11T07:50:46.909Z,8.30
2017-11-11T07:53:17.360Z,8.20
2017-11-11T07:55:46.899Z,8.30
2017-11-11T07:58:16.426Z,8.30
2017-11-11T08:00:45.859Z,8.20
2017-11-11T08:03:15.396Z,8.30
2017-11-11T08:05:45.002Z,8.30
2017-11-11T08:08:14.536Z,8.30
2017-11-11T08:10:43.777Z,8.10
2017-11-11T08:13:13.421Z,8.30
2017-11-11T08:15:43.135Z,8.40
2017-11-11T08:18:12.654Z,8.10
2017-11-11T08:20:42.451Z,8.30
2017-11-11T08:23:11.893Z,8.40
2017-11-11T08:25:41.201Z,8.60
2017-11-11T08:28:10.934Z,8.40
2017-11-11T08:30:41.386Z,8.70
2017-11-11T08:33:11.074Z,8.60
2017-11-11T08:35:40.402Z,8.50
2017-11-11T08:38:09.532Z,8.50
2017-11-11T08:40:39.036Z,8.70
2017-11-11T08:43:08.496Z,8.60
2017-11-11T08:45:38.167Z,8.60
2017-11-11T08:48:07.433Z,8.60
2017-11-11T08:50:37.064Z,8.70
2017-11-11T08:53:06.265Z,8.60
2017-11-11T08:55:35.536Z,8.50
2017-11-11T08:58:04.897Z,8.70
2017-11-11T09:00:34.200Z,8.70
2017-11-11T09:03:03.579Z,8.70
2017-11-11T09:05:33.141Z,8.70
2017-11-11T09:08:02.510Z,8.60
2017-11-11T09:10:32.794Z,8.70
2017-11-11T09:13:02.267Z,8.60
2017-11-11T09:15:31.780Z,8.60
2017-11-11T09:18:00.953Z,8.60
2017-11-11T09:20:30.713Z,8.60
2017-11-11T09:23:00.854Z,8.70
2017-11-11T09:25:30.681Z,8.60
2017-11-11T09:28:00.131Z,8.70
2017-11-11T09:30:29.769Z,8.60
2017-11-11T09:32:59.414Z,8.60
2017-11-11T09:35:28.876Z,8.60
2017-11-11T09:37:58.349Z,8.70
2017-11-11T09:40:27.701Z,8.70
2017-11-11T09:42:57.115Z,8.60
2017-11-11T09:45:27.200Z,8.70
2017-11-11T09:47:56.750Z,8.70
2017-11-11T09:50:26.124Z,8.70
2017-11-11T09:52:55.581Z,8.60
2017-11-11T09:55:25.396Z,8.70
2017-11-11T09:57:54.750Z,8.70
2017-11-11T10:00:25.112Z,8.70
2017-11-11T10:02:54.710Z,8.60
2017-11-11T10:05:24.305Z,8.70
2017-11-11T10:07:53.934Z,8.40
2017-11-11T10:10:23.291Z,8.60
2017-11-11T10:12:53.780Z,8.30
2017-11-11T10:15:23.355Z,8.60
2017-11-11T10:17:52.758Z,8.30
2017-11-11T10:20:23.275Z,8.30
2017-11-11T10:22:53.726Z,8.30
2017-11-11T10:25:23.019Z,8.30
2017-11-11T10:27:52.638Z,8.30
2017-11-11T10:30:22.050Z,8.30
2017-11-11T10:32:51.218Z,8.30
2017-11-11T10:35:20.687Z,8.30
2017-11-11T10:37:49.947Z,8.10
2017-11-11T10:40:19.229Z,8.10
2017-11-11T10:42:48.462Z,8.30
2017-11-11T10:45:17.918Z,8.40
2017-11-11T10:47:48.145Z,8.40
2017-11-11T10:50:17.504Z,8.30
2017-11-11T10:52:46.625Z,8.10
2017-11-11T10:55:16.021Z,8.10
2017-11-11T10:57:45.429Z,8.10
2017-11-11T11:00:15.128Z,8.30
2017-11-11T11:02:44.662Z,8.30
2017-11-11T11:05:13.714Z,8.30
2017-11-11T11:07:43.108Z,8.20
2017-11-11T11:10:12.345Z,8.40
2017-11-11T11:12:41.810Z,8.30
2017-11-11T11:15:11.152Z,8.40
2017-11-11T11:17:40.671Z,8.40
2017-11-11T11:20:11.111Z,8.20
2017-11-11T11:22:40.359Z,8.30
2017-11-11T11:25:09.734Z,8.30
2017-11-11T11:27:39.188Z,8.40
2017-11-11T11:30:08.524Z,8.40
2017-11-11T11:32:37.725Z,8.50
2017-11-11T11:35:07.634Z,8.30
2017-11-11T11:37:37.195Z,8.40
2017-11-11T11:40:07.224Z,8.40
2017-11-11T11:42:36.482Z,8.30
2017-11-11T11:45:05.838Z,8.30
2017-11-11T11:47:35.456Z,8.50
2017-11-11T11:50:05.622Z,8.60
2017-11-11T11:52:34.915Z,8.60
2017-11-11T11:55:04.464Z,8.40
2017-11-11T11:57:34.612Z,8.40
2017-11-11T12:00:03.974Z,8.60
2017-11-11T12:02:33.107Z,8.40
2017-11-11T12:05:02.862Z,8.60
2017-11-11T12:07:32.146Z,8.50
2017-11-11T12:10:01.316Z,8.60
2017-11-11T12:12:30.871Z,8.70
2017-11-11T12:15:00.552Z,8.60
2017-11-11T12:17:29.940Z,8.70
2017-11-11T12:19:59.456Z,8.70
2017-11-11T12:22:28.828Z,8.70
2017-11-11T12:24:59.190Z,8.80
2017-11-11T12:27:28.452Z,8.60
2017-11-11T12:29:57.658Z,9.00
2017-11-11T12:32:27.709Z,8.80
2017-11-11T12:34:57.054Z,8.70
2017-11-11T12:37:26.491Z,9.10
2017-11-11T12:39:56.853Z,9.00
2017-11-11T12:42:26.097Z,9.10
2017-11-11T12:44:55.528Z,9.10
2017-11-11T12:47:25.138Z,9.10
2017-11-11T12:49:55.429Z,9.20
2017-11-11T12:52:32.018Z,9.10
2017-11-11T12:55:01.426Z,9.00
2017-11-11T12:57:31.951Z,9.00
2017-11-11T13:00:02.038Z,9.00
2017-11-11T13:02:31.831Z,9.00
2017-11-11T13:05:01.248Z,9.10
2017-11-11T13:07:30.482Z,9.10
2017-11-11T13:09:59.854Z,9.00
2017-11-11T13:12:29.757Z,9.10
2017-11-11T13:14:59.069Z,9.10
2017-11-11T13:17:28.528Z,9.00
2017-11-11T13:19:57.668Z,9.10
2017-11-11T13:22:26.956Z,9.10
2017-11-11T13:24:56.216Z,9.00
2017-11-11T13:27:25.760Z,9.00
2017-11-11T13:29:55.142Z,9.10
2017-11-11T13:32:24.621Z,9.10
2017-11-11T13:34:54.277Z,9.00
2017-11-11T13:37:24.053Z,9.00
2017-11-11T13:39:53.691Z,8.90
2017-11-11T13:42:23.076Z,9.10
2017-11-11T13:44:52.606Z,9.00
2017-11-11T13:47:22.208Z,8.90
2017-11-11T13:49:51.798Z,8.90
2017-11-11T13:52:21.289Z,8.80
2017-11-11T13:54:50.621Z,8.80
2017-11-11T13:57:20.271Z,9.00
2017-11-11T13:59:49.660Z,8.90
2017-11-11T14:02:19.008Z,8.90
2017-11-11T14:04:48.362Z,9.00
2017-11-11T14:07:20.870Z,9.10
2017-11-11T14:09:51.126Z,8.70
2017-11-11T14:12:20.507Z,9.00
2017-11-11T14:14:49.865Z,9.00
2017-11-11T14:17:19.214Z,9.10
2017-11-11T14:19:52.383Z,9.00
2017-11-11T14:22:23.159Z,9.10
2017-11-11T14:24:52.525Z,8.90
2017-11-11T14:27:25.416Z,8.80
2017-11-11T14:29:55.086Z,8.70
2017-11-11T14:32:25.377Z,9.00
2017-11-11T14:34:56.141Z,9.00
2017-11-11T14:37:28.812Z,8.60
2017-11-11T14:39:58.460Z,8.80
2017-11-11T14:42:28.763Z,8.70
2017-11-11T14:44:58.064Z,8.70
2017-11-11T14:47:27.306Z,8.60
2017-11-11T14:49:56.824Z,8.70
2017-11-11T14:52:26.762Z,8.70
2017-11-11T14:54:56.255Z,8.70
2017-11-11T14:57:25.850Z,8.70
2017-11-11T14:59:55.555Z,8.70
2017-11-11T15:02:24.982Z,8.70
2017-11-11T15:04:54.205Z,8.80
2017-11-11T15:07:26.828Z,8.70
2017-11-11T15:09:56.470Z,8.70
2017-11-11T15:12:25.981Z,8.60
2017-11-11T15:14:56.261Z,8.70
2017-11-11T15:17:25.900Z,8.70
2017-11-11T15:19:55.475Z,8.60
2017-11-11T15:22:24.734Z,8.70
2017-11-11T15:24:54.207Z,8.70
2017-11-11T15:27:23.883Z,8.50
2017-11-11T15:29:53.337Z,8.60
2017-11-11T15:32:22.653Z,8.50
2017-11-11T15:34:51.925Z,8.70
2017-11-11T15:37:22.374Z,8.70
2017-11-11T15:39:52.166Z,8.80
2017-11-11T15:42:21.018Z,8.60
2017-11-11T15:44:50.411Z,8.80
2017-11-11T15:47:21.078Z,8.90
2017-11-11T15:49:50.433Z,9.00
2017-11-11T15:52:19.626Z,8.70
2017-11-11T15:54:49.538Z,8.90
2017-11-11T15:57:19.432Z,9.00
2017-11-11T15:59:49.042Z,9.20
2017-11-11T16:02:18.723Z,9.00
2017-11-11T16:04:48.222Z,9.10
2017-11-11T16:07:17.728Z,9.10
2017-11-11T16:09:47.342Z,9.10
2017-11-11T16:12:17.110Z,9.00
2017-11-11T16:14:46.826Z,9.20
2017-11-11T16:17:16.516Z,9.00
2017-11-11T16:19:46.071Z,9.10
2017-11-11T16:22:15.263Z,9.10
2017-11-11T16:24:44.912Z,9.40
2017-11-11T16:27:14.484Z,9.40
2017-11-11T16:32:24.102Z,9.50
2017-11-11T16:34:55.113Z,9.60
2017-11-11T16:37:25.255Z,10.00
2017-11-11T16:39:54.848Z,9.90
2017-11-11T16:42:24.395Z,10.00
2017-11-11T16:50:22.213Z,10.10
2017-11-11T16:52:51.501Z,10.10
2017-11-11T16:55:21.724Z,10.50
2017-11-11T16:57:51.799Z,10.40
2017-11-11T17:00:21.202Z,10.40
2017-11-11T17:05:29.201Z,10.90
2017-11-11T17:08:06.323Z,10.80
2017-11-11T17:10:37.158Z,10.70
2017-11-11T17:13:06.567Z,10.80
2017-11-11T17:15:36.270Z,10.90
2017-11-11T17:18:05.849Z,10.90
2017-11-11T17:20:42.689Z,11.30
2017-11-11T17:23:17.566Z,11.50
2017-11-11T17:25:47.464Z,11.30
2017-11-11T17:28:24.746Z,11.50
2017-11-11T17:30:55.205Z,11.90
2017-11-11T17:33:24.719Z,12.00
2017-11-11T17:35:53.921Z,12.10
2017-11-11T17:38:23.381Z,12.00
2017-11-11T17:40:52.895Z,11.90
2017-11-11T17:43:22.134Z,11.80
2017-11-11T17:45:51.441Z,11.90
2017-11-11T17:48:21.176Z,11.90
2017-11-11T17:50:52.222Z,11.90
2017-11-11T17:53:21.900Z,11.80
2017-11-11T17:55:52.129Z,11.70
2017-11-11T17:58:21.321Z,11.30
2017-11-11T18:00:50.656Z,11.10
2017-11-11T18:03:23.304Z,11.00
2017-11-11T18:05:53.352Z,11.00
2017-11-11T18:08:22.768Z,10.80
2017-11-11T18:10:52.227Z,10.80
2017-11-11T18:13:21.642Z,10.50
2017-11-11T18:15:51.225Z,10.30
2017-11-11T18:18:20.541Z,10.50
2017-11-11T18:20:49.883Z,10.20
2017-11-11T18:23:24.627Z,10.20
2017-11-11T18:25:59.867Z,10.10
2017-11-11T18:33:52.413Z,10.40
2017-11-11T18:39:02.089Z,10.30
2017-11-11T18:41:31.463Z,10.40
2017-11-11T18:44:00.740Z,10.20
2017-11-11T18:46:29.847Z,10.10
2017-11-11T18:49:06.551Z,10.20
2017-11-11T18:54:17.408Z,10.30
2017-11-11T18:56:47.540Z,10.30
2017-11-11T18:59:16.948Z,10.30
2017-11-11T19:01:47.100Z,10.40
2017-11-11T19:04:16.820Z,10.60
2017-11-11T19:06:46.534Z,10.40
2017-11-11T19:09:15.910Z,10.30
2017-11-11T19:11:45.694Z,10.30
2017-11-11T19:14:15.150Z,10.30
2017-11-11T19:16:44.733Z,10.10
2017-11-11T19:19:14.855Z,10.20
2017-11-11T19:21:45.055Z,10.20
2017-11-11T19:24:15.364Z,10.20
2017-11-11T19:26:44.592Z,10.40
2017-11-11T19:29:14.867Z,10.00
2017-11-11T19:31:44.104Z,9.80
2017-11-11T19:34:13.313Z,9.80
2017-11-11T19:36:42.890Z,9.80
2017-11-11T19:39:12.512Z,9.50
2017-11-11T19:41:41.993Z,9.60
2017-11-11T19:44:11.513Z,9.40
2017-11-11T19:46:45.925Z,9.80
2017-11-11T19:49:20.493Z,9.60
2017-11-11T19:51:51.136Z,9.80
2017-11-11T19:54:20.723Z,9.80
2017-11-11T19:56:50.793Z,9.90
2017-11-11T19:59:20.118Z,9.60
2017-11-11T20:01:49.728Z,9.70
2017-11-11T20:06:58.802Z,9.50
2017-11-11T20:12:10.889Z,9.70
2017-11-11T20:17:20.151Z,9.90
2017-11-11T20:19:49.931Z,10.00
2017-11-11T20:25:01.549Z,9.90
2017-11-11T20:27:30.787Z,9.90
2017-11-11T20:30:01.410Z,9.90
2017-11-11T20:32:31.206Z,9.80
2017-11-11T20:35:01.407Z,10.30
2017-11-11T20:37:30.875Z,10.40
2017-11-11T20:40:00.516Z,10.30
2017-11-11T20:42:34.307Z,10.30
2017-11-11T20:45:12.528Z,10.30
2017-11-11T20:47:51.184Z,10.20
2017-11-11T20:50:22.533Z,10.20
2017-11-11T20:52:52.205Z,10.20
2017-11-11T20:55:22.869Z,10.20
2017-11-11T20:57:52.991Z,10.50
2017-11-11T21:00:33.661Z,10.20
2017-11-11T21:03:04.605Z,10.50
2017-11-11T21:05:35.034Z,10.50
2017-11-11T21:08:04.940Z,10.20
2017-11-11T21:10:34.539Z,10.40
2017-11-11T21:13:04.227Z,10.60
2017-11-11T21:15:33.785Z,10.80
2017-11-11T21:18:03.517Z,11.00
2017-11-11T21:20:33.474Z,11.00
2017-11-11T21:23:03.046Z,10.90
2017-11-11T21:25:33.402Z,11.00
2017-11-11T21:28:03.104Z,11.00
2017-11-11T21:30:32.510Z,11.10
2017-11-11T21:33:02.112Z,11.40
2017-11-11T21:35:31.579Z,11.40
2017-11-11T21:38:01.283Z,11.40
2017-11-11T21:40:31.172Z,11.40
2017-11-11T21:43:00.390Z,11.50
2017-11-11T21:45:29.996Z,11.50
2017-11-11T21:47:59.658Z,11.60
2017-11-11T21:50:29.308Z,11.60
2017-11-11T21:52:58.926Z,11.50
2017-11-11T21:55:28.299Z,11.60
2017-11-11T21:57:59.809Z,11.60
2017-11-11T22:00:29.448Z,11.60
2017-11-11T22:02:59.181Z,11.70
2017-11-11T22:05:29.552Z,11.50
2017-11-11T22:07:59.350Z,11.50
2017-11-11T22:10:29.040Z,11.50
2017-11-11T22:12:59.544Z,11.50
2017-11-11T22:15:29.015Z,11.50
2017-11-11T22:17:58.640Z,11.30
2017-11-11T22:20:28.205Z,11.50
2017-11-11T22:22:59.643Z,11.40
2017-11-11T22:25:29.330Z,11.60
2017-11-11T22:27:58.884Z,11.40
2017-11-11T22:30:28.145Z,11.40
2017-11-11T22:32:57.572Z,11.70
2017-11-11T22:35:27.475Z,11.70
2017-11-11T22:37:56.826Z,11.40
2017-11-11T22:40:26.086Z,11.20
2017-11-11T22:42:55.321Z,11.20
2017-11-11T22:45:24.699Z,11.40
2017-11-11T22:47:54.135Z,11.30
2017-11-11T22:50:23.422Z,10.90
2017-11-11T22:52:52.596Z,10.80
2017-11-11T22:55:22.665Z,10.90
2017-11-11T22:57:51.974Z,10.90
2017-11-11T23:00:45.913Z,10.70
2017-11-11T23:03:15.344Z,10.70
2017-11-11T23:05:44.494Z,10.60
2017-11-11T23:08:13.919Z,10.80
2017-11-11T23:10:43.212Z,10.80
2017-11-11T23:13:12.381Z,10.60
2017-11-11T23:15:41.681Z,10.30
2017-11-11T23:18:11.165Z,10.50
2017-11-11T23:20:40.542Z,10.30
2017-11-11T23:23:09.749Z,10.40
2017-11-11T23:25:38.984Z,10.30
2017-11-11T23:28:09.346Z,10.30
2017-11-11T23:30:38.945Z,10.30
2017-11-11T23:33:08.097Z,10.40
2017-11-11T23:35:37.391Z,10.30
2017-11-11T23:38:06.752Z,10.20
2017-11-11T23:40:35.891Z,10.20
2017-11-11T23:43:05.198Z,10.20
2017-11-11T23:45:34.335Z,10.20
2017-11-11T23:48:03.942Z,10.30
2017-11-11T23:50:33.111Z,9.90
2017-11-11T23:53:02.344Z,10.00
2017-11-11T23:55:31.731Z,9.90
2017-11-11T23:58:01.276Z,9.90
